sensor_id;sensor_type;location;lat;lon;timestamp;P1;durP1;ratioP1;P2;durP2;ratioP2
47287;SDS011;33020;53.008;13.558;2022-10-17T00:02:02;3.95;;;2.38;;
47287;SDS011;33020;53.008;13.558;2022-10-17T00:04:29;8.23;;;3.00;;
47287;SDS011;33020;53.008;13.558;2022-10-17T00:06:56;4.13;;;2.20;;
47287;SDS011;33020;53.008;13.558;2022-10-17T00:09:22;6.45;;;2.30;;
47287;SDS011;33020;53.008;13.558;2022-10-17T00:11:52;3.90;;;1.80;;
47287;SDS011;33020;53.008;13.558;2022-10-17T00:14:18;2.55;;;2.25;;
47287;SDS011;33020;53.008;13.558;2022-10-17T00:16:45;5.90;;;2.35;;
47287;SDS011;33020;53.008;13.558;2022-10-17T00:19:14;4.40;;;2.13;;
47287;SDS011;33020;53.008;13.558;2022-10-17T00:21:42;5.38;;;2.97;;
47287;SDS011;33020;53.008;13.558;2022-10-17T00:24:08;3.47;;;2.00;;
47287;SDS011;33020;53.008;13.558;2022-10-17T00:26:35;5.30;;;2.72;;
47287;SDS011;33020;53.008;13.558;2022-10-17T00:29:01;4.20;;;2.58;;
47287;SDS011;33020;53.008;13.558;2022-10-17T00:31:28;3.58;;;2.47;;
47287;SDS011;33020;53.008;13.558;2022-10-17T00:33:55;3.85;;;2.35;;
47287;SDS011;33020;53.008;13.558;2022-10-17T00:36:22;3.88;;;2.33;;
47287;SDS011;33020;53.008;13.558;2022-10-17T00:38:52;4.05;;;2.30;;
47287;SDS011;33020;53.008;13.558;2022-10-17T00:41:21;2.63;;;2.30;;
47287;SDS011;33020;53.008;13.558;2022-10-17T00:43:54;11.23;;;2.60;;
47287;SDS011;33020;53.008;13.558;2022-10-17T00:46:52;4.78;;;2.28;;
47287;SDS011;33020;53.008;13.558;2022-10-17T00:49:19;3.60;;;2.00;;
47287;SDS011;33020;53.008;13.558;2022-10-17T00:52:08;4.78;;;2.55;;
47287;SDS011;33020;53.008;13.558;2022-10-17T00:54:57;3.97;;;2.30;;
47287;SDS011;33020;53.008;13.558;2022-10-17T00:57:26;7.78;;;2.03;;
47287;SDS011;33020;53.008;13.558;2022-10-17T00:59:54;4.20;;;2.90;;
47287;SDS011;33020;53.008;13.558;2022-10-17T01:02:21;5.13;;;2.47;;
47287;SDS011;33020;53.008;13.558;2022-10-17T01:04:49;4.03;;;2.75;;
47287;SDS011;33020;53.008;13.558;2022-10-17T01:07:16;2.80;;;2.10;;
47287;SDS011;33020;53.008;13.558;2022-10-17T01:09:44;4.75;;;2.42;;
47287;SDS011;33020;53.008;13.558;2022-10-17T01:12:24;4.47;;;2.10;;
47287;SDS011;33020;53.008;13.558;2022-10-17T01:20:28;2.58;;;2.20;;
47287;SDS011;33020;53.008;13.558;2022-10-17T01:23:23;7.10;;;3.17;;
47287;SDS011;33020;53.008;13.558;2022-10-17T01:25:57;6.55;;;2.50;;
47287;SDS011;33020;53.008;13.558;2022-10-17T01:31:12;4.85;;;2.13;;
47287;SDS011;33020;53.008;13.558;2022-10-17T01:33:49;2.88;;;2.53;;
47287;SDS011;33020;53.008;13.558;2022-10-17T01:36:25;5.78;;;2.70;;
47287;SDS011;33020;53.008;13.558;2022-10-17T01:44:27;4.55;;;2.47;;
47287;SDS011;33020;53.008;13.558;2022-10-17T01:46:59;3.85;;;2.42;;
47287;SDS011;33020;53.008;13.558;2022-10-17T01:49:31;3.30;;;2.53;;
47287;SDS011;33020;53.008;13.558;2022-10-17T01:52:03;4.43;;;2.90;;
47287;SDS011;33020;53.008;13.558;2022-10-17T01:54:36;3.17;;;2.08;;
47287;SDS011;33020;53.008;13.558;2022-10-17T01:57:07;2.85;;;2.25;;
47287;SDS011;33020;53.008;13.558;2022-10-17T01:59:40;5.47;;;2.40;;
47287;SDS011;33020;53.008;13.558;2022-10-17T02:02:08;4.97;;;2.08;;
47287;SDS011;33020;53.008;13.558;2022-10-17T02:04:35;6.00;;;2.60;;
47287;SDS011;33020;53.008;13.558;2022-10-17T02:07:06;2.90;;;2.20;;
47287;SDS011;33020;53.008;13.558;2022-10-17T02:09:34;3.13;;;2.35;;
47287;SDS011;33020;53.008;13.558;2022-10-17T02:15:23;5.80;;;2.50;;
47287;SDS011;33020;53.008;13.558;2022-10-17T02:21:28;5.47;;;2.22;;
47287;SDS011;33020;53.008;13.558;2022-10-17T02:24:13;5.85;;;2.08;;
47287;SDS011;33020;53.008;13.558;2022-10-17T02:26:51;4.00;;;1.90;;
47287;SDS011;33020;53.008;13.558;2022-10-17T02:29:22;5.18;;;2.40;;
47287;SDS011;33020;53.008;13.558;2022-10-17T02:32:01;2.78;;;2.25;;
47287;SDS011;33020;53.008;13.558;2022-10-17T02:34:31;4.50;;;2.47;;
47287;SDS011;33020;53.008;13.558;2022-10-17T02:37:01;5.25;;;2.67;;
47287;SDS011;33020;53.008;13.558;2022-10-17T02:39:30;5.03;;;3.67;;
47287;SDS011;33020;53.008;13.558;2022-10-17T02:41:59;7.38;;;4.43;;
47287;SDS011;33020;53.008;13.558;2022-10-17T02:44:27;5.93;;;3.63;;
47287;SDS011;33020;53.008;13.558;2022-10-17T02:46:55;4.30;;;3.17;;
47287;SDS011;33020;53.008;13.558;2022-10-17T02:49:28;6.22;;;2.67;;
47287;SDS011;33020;53.008;13.558;2022-10-17T02:55:02;4.57;;;2.60;;
47287;SDS011;33020;53.008;13.558;2022-10-17T03:00:18;5.70;;;2.67;;
47287;SDS011;33020;53.008;13.558;2022-10-17T03:02:47;7.30;;;2.78;;
47287;SDS011;33020;53.008;13.558;2022-10-17T03:05:16;4.60;;;2.72;;
47287;SDS011;33020;53.008;13.558;2022-10-17T03:07:47;5.30;;;2.80;;
47287;SDS011;33020;53.008;13.558;2022-10-17T03:10:14;4.05;;;2.50;;
47287;SDS011;33020;53.008;13.558;2022-10-17T03:12:41;5.03;;;2.42;;
47287;SDS011;33020;53.008;13.558;2022-10-17T03:15:08;4.65;;;2.33;;
47287;SDS011;33020;53.008;13.558;2022-10-17T03:17:35;5.35;;;2.65;;
47287;SDS011;33020;53.008;13.558;2022-10-17T03:20:02;4.03;;;2.42;;
47287;SDS011;33020;53.008;13.558;2022-10-17T03:22:29;3.08;;;2.00;;
47287;SDS011;33020;53.008;13.558;2022-10-17T03:24:57;6.40;;;2.80;;
47287;SDS011;33020;53.008;13.558;2022-10-17T03:27:23;2.85;;;2.40;;
47287;SDS011;33020;53.008;13.558;2022-10-17T03:29:50;4.40;;;2.30;;
47287;SDS011;33020;53.008;13.558;2022-10-17T03:32:17;3.08;;;2.50;;
47287;SDS011;33020;53.008;13.558;2022-10-17T03:34:43;3.70;;;2.63;;
47287;SDS011;33020;53.008;13.558;2022-10-17T03:37:10;8.18;;;2.38;;
47287;SDS011;33020;53.008;13.558;2022-10-17T03:39:36;4.10;;;2.30;;
47287;SDS011;33020;53.008;13.558;2022-10-17T03:42:03;4.22;;;2.53;;
47287;SDS011;33020;53.008;13.558;2022-10-17T03:44:30;4.15;;;2.22;;
47287;SDS011;33020;53.008;13.558;2022-10-17T03:46:56;3.90;;;2.60;;
47287;SDS011;33020;53.008;13.558;2022-10-17T03:49:23;5.53;;;2.97;;
47287;SDS011;33020;53.008;13.558;2022-10-17T03:51:50;5.80;;;3.08;;
47287;SDS011;33020;53.008;13.558;2022-10-17T03:54:16;5.32;;;3.25;;
47287;SDS011;33020;53.008;13.558;2022-10-17T03:56:43;6.60;;;2.97;;
47287;SDS011;33020;53.008;13.558;2022-10-17T03:59:13;5.85;;;2.92;;
47287;SDS011;33020;53.008;13.558;2022-10-17T04:01:40;5.75;;;2.95;;
47287;SDS011;33020;53.008;13.558;2022-10-17T04:04:07;5.18;;;2.88;;
47287;SDS011;33020;53.008;13.558;2022-10-17T04:06:35;3.95;;;3.13;;
47287;SDS011;33020;53.008;13.558;2022-10-17T04:09:02;4.28;;;2.10;;
47287;SDS011;33020;53.008;13.558;2022-10-17T04:11:30;5.28;;;2.60;;
47287;SDS011;33020;53.008;13.558;2022-10-17T04:13:57;3.83;;;2.80;;
47287;SDS011;33020;53.008;13.558;2022-10-17T04:16:25;4.50;;;2.65;;
47287;SDS011;33020;53.008;13.558;2022-10-17T04:18:54;3.47;;;2.60;;
47287;SDS011;33020;53.008;13.558;2022-10-17T04:21:22;6.35;;;2.50;;
47287;SDS011;33020;53.008;13.558;2022-10-17T04:23:54;3.80;;;2.33;;
47287;SDS011;33020;53.008;13.558;2022-10-17T04:26:21;3.33;;;2.30;;
47287;SDS011;33020;53.008;13.558;2022-10-17T04:28:49;3.67;;;2.55;;
47287;SDS011;33020;53.008;13.558;2022-10-17T04:31:16;4.78;;;2.72;;
47287;SDS011;33020;53.008;13.558;2022-10-17T04:33:47;6.88;;;2.55;;
47287;SDS011;33020;53.008;13.558;2022-10-17T04:36:15;3.58;;;2.50;;
47287;SDS011;33020;53.008;13.558;2022-10-17T04:38:43;6.53;;;3.47;;
47287;SDS011;33020;53.008;13.558;2022-10-17T04:41:11;6.03;;;2.92;;
47287;SDS011;33020;53.008;13.558;2022-10-17T04:43:38;3.70;;;2.55;;
47287;SDS011;33020;53.008;13.558;2022-10-17T04:46:06;3.72;;;2.60;;
47287;SDS011;33020;53.008;13.558;2022-10-17T04:48:34;5.93;;;2.58;;
47287;SDS011;33020;53.008;13.558;2022-10-17T04:51:02;4.03;;;2.53;;
47287;SDS011;33020;53.008;13.558;2022-10-17T04:53:31;3.17;;;2.65;;
47287;SDS011;33020;53.008;13.558;2022-10-17T04:55:58;4.20;;;2.72;;
47287;SDS011;33020;53.008;13.558;2022-10-17T04:58:26;4.93;;;2.95;;
47287;SDS011;33020;53.008;13.558;2022-10-17T05:00:54;5.07;;;2.72;;
47287;SDS011;33020;53.008;13.558;2022-10-17T05:03:21;2.90;;;2.53;;
47287;SDS011;33020;53.008;13.558;2022-10-17T05:05:48;2.88;;;2.55;;
47287;SDS011;33020;53.008;13.558;2022-10-17T05:08:14;5.15;;;2.72;;
47287;SDS011;33020;53.008;13.558;2022-10-17T05:10:42;4.57;;;2.67;;
47287;SDS011;33020;53.008;13.558;2022-10-17T05:13:09;5.03;;;2.60;;
47287;SDS011;33020;53.008;13.558;2022-10-17T05:15:36;4.07;;;2.30;;
47287;SDS011;33020;53.008;13.558;2022-10-17T05:18:04;4.88;;;2.63;;
47287;SDS011;33020;53.008;13.558;2022-10-17T05:20:31;4.75;;;2.95;;
47287;SDS011;33020;53.008;13.558;2022-10-17T05:22:58;3.22;;;2.40;;
47287;SDS011;33020;53.008;13.558;2022-10-17T05:25:25;3.60;;;2.90;;
47287;SDS011;33020;53.008;13.558;2022-10-17T05:27:52;3.50;;;2.60;;
47287;SDS011;33020;53.008;13.558;2022-10-17T05:30:19;5.82;;;2.85;;
47287;SDS011;33020;53.008;13.558;2022-10-17T05:32:46;4.93;;;2.35;;
47287;SDS011;33020;53.008;13.558;2022-10-17T05:35:12;6.28;;;2.58;;
47287;SDS011;33020;53.008;13.558;2022-10-17T05:37:39;5.47;;;3.08;;
47287;SDS011;33020;53.008;13.558;2022-10-17T05:40:06;4.72;;;2.58;;
47287;SDS011;33020;53.008;13.558;2022-10-17T05:42:33;3.45;;;2.47;;
47287;SDS011;33020;53.008;13.558;2022-10-17T05:44:59;3.25;;;2.38;;
47287;SDS011;33020;53.008;13.558;2022-10-17T05:47:26;4.22;;;2.40;;
47287;SDS011;33020;53.008;13.558;2022-10-17T05:49:53;2.67;;;1.90;;
47287;SDS011;33020;53.008;13.558;2022-10-17T05:52:20;6.80;;;2.92;;
47287;SDS011;33020;53.008;13.558;2022-10-17T05:54:47;5.20;;;2.80;;
47287;SDS011;33020;53.008;13.558;2022-10-17T05:57:13;4.35;;;2.33;;
47287;SDS011;33020;53.008;13.558;2022-10-17T05:59:40;5.18;;;2.40;;
47287;SDS011;33020;53.008;13.558;2022-10-17T06:02:08;4.00;;;2.83;;
47287;SDS011;33020;53.008;13.558;2022-10-17T06:07:17;3.10;;;2.60;;
47287;SDS011;33020;53.008;13.558;2022-10-17T06:09:44;4.25;;;2.60;;
47287;SDS011;33020;53.008;13.558;2022-10-17T06:12:11;3.50;;;2.63;;
47287;SDS011;33020;53.008;13.558;2022-10-17T06:14:38;7.60;;;2.53;;
47287;SDS011;33020;53.008;13.558;2022-10-17T06:17:05;5.50;;;2.60;;
47287;SDS011;33020;53.008;13.558;2022-10-17T06:19:32;3.75;;;3.03;;
47287;SDS011;33020;53.008;13.558;2022-10-17T06:21:58;4.60;;;2.88;;
47287;SDS011;33020;53.008;13.558;2022-10-17T06:24:25;3.70;;;2.40;;
47287;SDS011;33020;53.008;13.558;2022-10-17T06:26:52;4.20;;;2.47;;
47287;SDS011;33020;53.008;13.558;2022-10-17T06:29:18;4.75;;;2.92;;
47287;SDS011;33020;53.008;13.558;2022-10-17T06:31:45;4.93;;;2.83;;
47287;SDS011;33020;53.008;13.558;2022-10-17T06:34:12;3.70;;;3.00;;
47287;SDS011;33020;53.008;13.558;2022-10-17T06:36:38;6.93;;;3.13;;
47287;SDS011;33020;53.008;13.558;2022-10-17T06:39:05;4.25;;;3.45;;
47287;SDS011;33020;53.008;13.558;2022-10-17T06:41:31;5.25;;;4.03;;
47287;SDS011;33020;53.008;13.558;2022-10-17T06:43:58;5.60;;;4.25;;
47287;SDS011;33020;53.008;13.558;2022-10-17T06:46:25;6.00;;;3.53;;
47287;SDS011;33020;53.008;13.558;2022-10-17T06:48:54;8.50;;;3.88;;
47287;SDS011;33020;53.008;13.558;2022-10-17T06:51:21;4.78;;;3.90;;
47287;SDS011;33020;53.008;13.558;2022-10-17T06:53:47;5.60;;;3.35;;
47287;SDS011;33020;53.008;13.558;2022-10-17T06:56:14;8.43;;;4.65;;
47287;SDS011;33020;53.008;13.558;2022-10-17T06:58:41;8.13;;;4.55;;
47287;SDS011;33020;53.008;13.558;2022-10-17T07:01:09;6.85;;;4.20;;
47287;SDS011;33020;53.008;13.558;2022-10-17T07:03:38;7.28;;;3.90;;
47287;SDS011;33020;53.008;13.558;2022-10-17T07:06:05;6.18;;;4.30;;
47287;SDS011;33020;53.008;13.558;2022-10-17T07:08:32;6.60;;;5.60;;
47287;SDS011;33020;53.008;13.558;2022-10-17T07:11:04;7.88;;;5.97;;
47287;SDS011;33020;53.008;13.558;2022-10-17T07:13:34;6.72;;;5.28;;
47287;SDS011;33020;53.008;13.558;2022-10-17T07:16:04;8.13;;;5.65;;
47287;SDS011;33020;53.008;13.558;2022-10-17T07:18:32;7.85;;;5.50;;
47287;SDS011;33020;53.008;13.558;2022-10-17T07:20:58;6.25;;;5.35;;
47287;SDS011;33020;53.008;13.558;2022-10-17T07:23:25;9.60;;;6.20;;
47287;SDS011;33020;53.008;13.558;2022-10-17T07:25:52;8.95;;;5.90;;
47287;SDS011;33020;53.008;13.558;2022-10-17T07:28:18;7.10;;;5.32;;
47287;SDS011;33020;53.008;13.558;2022-10-17T07:30:45;7.78;;;5.50;;
47287;SDS011;33020;53.008;13.558;2022-10-17T07:33:18;7.20;;;5.70;;
47287;SDS011;33020;53.008;13.558;2022-10-17T07:35:45;7.82;;;6.32;;
47287;SDS011;33020;53.008;13.558;2022-10-17T07:38:12;9.55;;;6.10;;
47287;SDS011;33020;53.008;13.558;2022-10-17T07:40:38;7.60;;;5.80;;
47287;SDS011;33020;53.008;13.558;2022-10-17T07:43:05;11.05;;;6.03;;
47287;SDS011;33020;53.008;13.558;2022-10-17T07:45:31;6.65;;;5.18;;
47287;SDS011;33020;53.008;13.558;2022-10-17T07:47:58;7.15;;;5.10;;
47287;SDS011;33020;53.008;13.558;2022-10-17T07:50:25;6.47;;;5.30;;
47287;SDS011;33020;53.008;13.558;2022-10-17T07:52:51;6.55;;;5.45;;
47287;SDS011;33020;53.008;13.558;2022-10-17T07:55:18;6.60;;;5.10;;
47287;SDS011;33020;53.008;13.558;2022-10-17T07:57:45;6.50;;;5.22;;
47287;SDS011;33020;53.008;13.558;2022-10-17T08:00:12;8.07;;;6.07;;
47287;SDS011;33020;53.008;13.558;2022-10-17T08:02:39;5.97;;;5.00;;
47287;SDS011;33020;53.008;13.558;2022-10-17T08:05:05;6.70;;;4.50;;
47287;SDS011;33020;53.008;13.558;2022-10-17T08:07:32;5.70;;;4.47;;
47287;SDS011;33020;53.008;13.558;2022-10-17T08:09:59;5.97;;;4.75;;
47287;SDS011;33020;53.008;13.558;2022-10-17T08:12:25;5.68;;;4.65;;
47287;SDS011;33020;53.008;13.558;2022-10-17T08:14:53;6.85;;;4.10;;
47287;SDS011;33020;53.008;13.558;2022-10-17T08:17:19;8.60;;;4.05;;
47287;SDS011;33020;53.008;13.558;2022-10-17T08:19:47;6.13;;;4.57;;
47287;SDS011;33020;53.008;13.558;2022-10-17T08:22:13;5.50;;;4.03;;
47287;SDS011;33020;53.008;13.558;2022-10-17T08:24:40;5.60;;;4.35;;
47287;SDS011;33020;53.008;13.558;2022-10-17T08:27:11;5.03;;;4.32;;
47287;SDS011;33020;53.008;13.558;2022-10-17T08:29:39;6.05;;;4.25;;
47287;SDS011;33020;53.008;13.558;2022-10-17T08:32:06;5.50;;;3.80;;
47287;SDS011;33020;53.008;13.558;2022-10-17T08:34:35;5.32;;;4.22;;
47287;SDS011;33020;53.008;13.558;2022-10-17T08:37:02;6.68;;;4.32;;
47287;SDS011;33020;53.008;13.558;2022-10-17T08:39:29;6.22;;;3.97;;
47287;SDS011;33020;53.008;13.558;2022-10-17T08:47:09;4.18;;;3.30;;
47287;SDS011;33020;53.008;13.558;2022-10-17T08:49:49;4.10;;;3.20;;
47287;SDS011;33020;53.008;13.558;2022-10-17T08:55:12;3.83;;;3.38;;
47287;SDS011;33020;53.008;13.558;2022-10-17T08:57:41;4.88;;;3.63;;
47287;SDS011;33020;53.008;13.558;2022-10-17T09:00:16;4.38;;;3.33;;
47287;SDS011;33020;53.008;13.558;2022-10-17T09:05:49;5.53;;;2.85;;
47287;SDS011;33020;53.008;13.558;2022-10-17T09:14:50;4.63;;;3.15;;
47287;SDS011;33020;53.008;13.558;2022-10-17T09:17:41;5.00;;;3.17;;
47287;SDS011;33020;53.008;13.558;2022-10-17T09:20:16;4.65;;;3.55;;
47287;SDS011;33020;53.008;13.558;2022-10-17T09:22:46;3.10;;;2.80;;
47287;SDS011;33020;53.008;13.558;2022-10-17T09:25:18;4.97;;;3.50;;
47287;SDS011;33020;53.008;13.558;2022-10-17T09:28:00;3.13;;;2.83;;
47287;SDS011;33020;53.008;13.558;2022-10-17T09:30:46;4.40;;;3.00;;
47287;SDS011;33020;53.008;13.558;2022-10-17T09:33:19;5.53;;;3.47;;
47287;SDS011;33020;53.008;13.558;2022-10-17T09:36:02;3.80;;;3.40;;
47287;SDS011;33020;53.008;13.558;2022-10-17T09:38:37;4.95;;;3.25;;
47287;SDS011;33020;53.008;13.558;2022-10-17T09:41:05;3.38;;;2.92;;
47287;SDS011;33020;53.008;13.558;2022-10-17T09:44:07;4.33;;;3.00;;
47287;SDS011;33020;53.008;13.558;2022-10-17T09:46:39;3.58;;;3.08;;
47287;SDS011;33020;53.008;13.558;2022-10-17T09:49:11;4.18;;;2.67;;
47287;SDS011;33020;53.008;13.558;2022-10-17T09:51:43;4.40;;;2.78;;
47287;SDS011;33020;53.008;13.558;2022-10-17T09:54:21;4.35;;;3.30;;
47287;SDS011;33020;53.008;13.558;2022-10-17T09:57:00;4.68;;;2.83;;
47287;SDS011;33020;53.008;13.558;2022-10-17T09:59:34;4.85;;;3.15;;
47287;SDS011;33020;53.008;13.558;2022-10-17T10:04:50;4.72;;;2.72;;
47287;SDS011;33020;53.008;13.558;2022-10-17T10:07:34;3.58;;;3.03;;
47287;SDS011;33020;53.008;13.558;2022-10-17T10:10:04;4.07;;;2.78;;
47287;SDS011;33020;53.008;13.558;2022-10-17T10:12:34;3.53;;;2.63;;
47287;SDS011;33020;53.008;13.558;2022-10-17T10:17:59;4.40;;;3.13;;
47287;SDS011;33020;53.008;13.558;2022-10-17T10:20:27;3.78;;;2.92;;
47287;SDS011;33020;53.008;13.558;2022-10-17T10:23:03;3.95;;;2.90;;
47287;SDS011;33020;53.008;13.558;2022-10-17T10:25:33;4.10;;;3.13;;
47287;SDS011;33020;53.008;13.558;2022-10-17T10:28:01;3.75;;;2.65;;
47287;SDS011;33020;53.008;13.558;2022-10-17T10:30:28;4.90;;;3.33;;
47287;SDS011;33020;53.008;13.558;2022-10-17T10:32:58;3.20;;;2.90;;
47287;SDS011;33020;53.008;13.558;2022-10-17T10:35:33;4.57;;;2.80;;
47287;SDS011;33020;53.008;13.558;2022-10-17T10:38:01;3.38;;;2.72;;
47287;SDS011;33020;53.008;13.558;2022-10-17T10:40:30;4.65;;;2.78;;
47287;SDS011;33020;53.008;13.558;2022-10-17T10:42:59;5.47;;;3.10;;
47287;SDS011;33020;53.008;13.558;2022-10-17T10:51:16;3.85;;;3.55;;
47287;SDS011;33020;53.008;13.558;2022-10-17T10:53:51;3.97;;;2.78;;
47287;SDS011;33020;53.008;13.558;2022-10-17T10:56:39;5.43;;;2.85;;
47287;SDS011;33020;53.008;13.558;2022-10-17T10:59:11;2.60;;;2.40;;
47287;SDS011;33020;53.008;13.558;2022-10-17T11:02:33;4.38;;;2.63;;
47287;SDS011;33020;53.008;13.558;2022-10-17T11:07:19;3.40;;;3.10;;
47287;SDS011;33020;53.008;13.558;2022-10-17T11:09:56;3.15;;;2.85;;
47287;SDS011;33020;53.008;13.558;2022-10-17T11:12:30;4.15;;;2.88;;
47287;SDS011;33020;53.008;13.558;2022-10-17T11:17:54;5.63;;;3.22;;
47287;SDS011;33020;53.008;13.558;2022-10-17T11:23:26;4.25;;;3.20;;
47287;SDS011;33020;53.008;13.558;2022-10-17T11:25:58;4.88;;;2.80;;
47287;SDS011;33020;53.008;13.558;2022-10-17T11:28:28;4.35;;;3.25;;
47287;SDS011;33020;53.008;13.558;2022-10-17T11:30:56;3.38;;;3.08;;
47287;SDS011;33020;53.008;13.558;2022-10-17T11:36:19;5.72;;;3.25;;
47287;SDS011;33020;53.008;13.558;2022-10-17T11:39:06;5.50;;;3.15;;
47287;SDS011;33020;53.008;13.558;2022-10-17T11:41:37;3.67;;;3.15;;
47287;SDS011;33020;53.008;13.558;2022-10-17T11:44:20;3.28;;;2.72;;
47287;SDS011;33020;53.008;13.558;2022-10-17T11:46:53;3.75;;;3.25;;
47287;SDS011;33020;53.008;13.558;2022-10-17T11:49:24;5.18;;;3.08;;
47287;SDS011;33020;53.008;13.558;2022-10-17T11:51:59;5.07;;;3.45;;
47287;SDS011;33020;53.008;13.558;2022-10-17T11:55:21;5.57;;;3.03;;
47287;SDS011;33020;53.008;13.558;2022-10-17T12:08:51;5.28;;;3.10;;
47287;SDS011;33020;53.008;13.558;2022-10-17T12:20:15;4.65;;;2.97;;
47287;SDS011;33020;53.008;13.558;2022-10-17T12:22:49;5.15;;;3.17;;
47287;SDS011;33020;53.008;13.558;2022-10-17T12:28:10;4.10;;;3.53;;
47287;SDS011;33020;53.008;13.558;2022-10-17T12:30:52;4.60;;;3.33;;
47287;SDS011;33020;53.008;13.558;2022-10-17T12:33:21;4.38;;;2.95;;
47287;SDS011;33020;53.008;13.558;2022-10-17T12:38:44;3.50;;;2.50;;
47287;SDS011;33020;53.008;13.558;2022-10-17T12:41:15;3.17;;;2.80;;
47287;SDS011;33020;53.008;13.558;2022-10-17T12:43:52;4.65;;;2.90;;
47287;SDS011;33020;53.008;13.558;2022-10-17T13:02:43;4.70;;;2.78;;
47287;SDS011;33020;53.008;13.558;2022-10-17T13:05:13;3.10;;;2.70;;
47287;SDS011;33020;53.008;13.558;2022-10-17T13:07:43;4.20;;;3.30;;
47287;SDS011;33020;53.008;13.558;2022-10-17T13:10:18;4.65;;;3.33;;
47287;SDS011;33020;53.008;13.558;2022-10-17T13:12:46;3.58;;;2.70;;
47287;SDS011;33020;53.008;13.558;2022-10-17T13:15:15;6.82;;;3.10;;
47287;SDS011;33020;53.008;13.558;2022-10-17T13:17:44;3.65;;;2.80;;
47287;SDS011;33020;53.008;13.558;2022-10-17T13:20:17;4.85;;;2.88;;
47287;SDS011;33020;53.008;13.558;2022-10-17T13:22:53;4.13;;;2.97;;
47287;SDS011;33020;53.008;13.558;2022-10-17T13:25:22;4.90;;;3.20;;
47287;SDS011;33020;53.008;13.558;2022-10-17T13:27:49;5.32;;;3.08;;
47287;SDS011;33020;53.008;13.558;2022-10-17T13:30:20;4.75;;;3.30;;
47287;SDS011;33020;53.008;13.558;2022-10-17T13:32:47;3.90;;;3.22;;
47287;SDS011;33020;53.008;13.558;2022-10-17T13:35:15;5.65;;;3.50;;
47287;SDS011;33020;53.008;13.558;2022-10-17T13:38:07;3.43;;;2.90;;
47287;SDS011;33020;53.008;13.558;2022-10-17T13:40:39;6.78;;;3.10;;
47287;SDS011;33020;53.008;13.558;2022-10-17T13:43:20;4.10;;;3.03;;
47287;SDS011;33020;53.008;13.558;2022-10-17T13:45:56;6.75;;;3.45;;
47287;SDS011;33020;53.008;13.558;2022-10-17T13:48:50;5.13;;;2.90;;
47287;SDS011;33020;53.008;13.558;2022-10-17T13:51:17;6.82;;;2.88;;
47287;SDS011;33020;53.008;13.558;2022-10-17T13:53:44;6.53;;;3.05;;
47287;SDS011;33020;53.008;13.558;2022-10-17T13:56:24;3.35;;;2.70;;
47287;SDS011;33020;53.008;13.558;2022-10-17T13:58:56;7.15;;;3.53;;
47287;SDS011;33020;53.008;13.558;2022-10-17T14:01:25;4.50;;;2.83;;
47287;SDS011;33020;53.008;13.558;2022-10-17T14:03:52;4.85;;;2.95;;
47287;SDS011;33020;53.008;13.558;2022-10-17T14:06:33;5.97;;;3.15;;
47287;SDS011;33020;53.008;13.558;2022-10-17T14:09:30;3.95;;;2.60;;
47287;SDS011;33020;53.008;13.558;2022-10-17T14:12:01;4.93;;;2.95;;
47287;SDS011;33020;53.008;13.558;2022-10-17T14:14:31;3.05;;;2.53;;
47287;SDS011;33020;53.008;13.558;2022-10-17T14:17:21;4.30;;;2.50;;
47287;SDS011;33020;53.008;13.558;2022-10-17T14:19:50;3.88;;;2.78;;
47287;SDS011;33020;53.008;13.558;2022-10-17T14:22:39;5.20;;;2.83;;
47287;SDS011;33020;53.008;13.558;2022-10-17T14:25:25;3.03;;;2.53;;
47287;SDS011;33020;53.008;13.558;2022-10-17T14:27:54;4.93;;;2.90;;
47287;SDS011;33020;53.008;13.558;2022-10-17T14:30:32;3.55;;;2.75;;
47287;SDS011;33020;53.008;13.558;2022-10-17T14:33:22;3.47;;;2.72;;
47287;SDS011;33020;53.008;13.558;2022-10-17T14:35:50;4.38;;;2.67;;
47287;SDS011;33020;53.008;13.558;2022-10-17T14:38:18;4.18;;;2.80;;
47287;SDS011;33020;53.008;13.558;2022-10-17T14:40:49;3.05;;;2.50;;
47287;SDS011;33020;53.008;13.558;2022-10-17T14:43:21;4.82;;;3.08;;
47287;SDS011;33020;53.008;13.558;2022-10-17T14:45:49;8.93;;;3.58;;
47287;SDS011;33020;53.008;13.558;2022-10-17T14:48:17;3.47;;;2.65;;
47287;SDS011;33020;53.008;13.558;2022-10-17T14:53:40;5.05;;;2.88;;
47287;SDS011;33020;53.008;13.558;2022-10-17T14:56:35;4.40;;;2.85;;
47287;SDS011;33020;53.008;13.558;2022-10-17T14:59:08;6.20;;;3.03;;
47287;SDS011;33020;53.008;13.558;2022-10-17T15:01:55;3.75;;;2.70;;
47287;SDS011;33020;53.008;13.558;2022-10-17T15:04:22;7.25;;;3.85;;
47287;SDS011;33020;53.008;13.558;2022-10-17T15:06:52;4.30;;;2.80;;
47287;SDS011;33020;53.008;13.558;2022-10-17T15:09:20;4.57;;;3.00;;
47287;SDS011;33020;53.008;13.558;2022-10-17T15:11:48;4.00;;;3.42;;
47287;SDS011;33020;53.008;13.558;2022-10-17T15:14:15;9.88;;;3.53;;
47287;SDS011;33020;53.008;13.558;2022-10-17T15:16:42;4.82;;;2.63;;
47287;SDS011;33020;53.008;13.558;2022-10-17T15:19:08;6.18;;;3.30;;
47287;SDS011;33020;53.008;13.558;2022-10-17T15:21:37;3.67;;;2.65;;
47287;SDS011;33020;53.008;13.558;2022-10-17T15:24:08;3.30;;;2.65;;
47287;SDS011;33020;53.008;13.558;2022-10-17T15:26:35;5.82;;;3.67;;
47287;SDS011;33020;53.008;13.558;2022-10-17T15:29:02;7.13;;;4.30;;
47287;SDS011;33020;53.008;13.558;2022-10-17T15:31:29;4.40;;;3.95;;
47287;SDS011;33020;53.008;13.558;2022-10-17T15:33:58;5.30;;;3.40;;
47287;SDS011;33020;53.008;13.558;2022-10-17T15:36:27;4.60;;;3.33;;
47287;SDS011;33020;53.008;13.558;2022-10-17T15:38:56;4.78;;;3.55;;
47287;SDS011;33020;53.008;13.558;2022-10-17T15:41:25;6.47;;;3.28;;
47287;SDS011;33020;53.008;13.558;2022-10-17T15:43:53;5.15;;;3.00;;
47287;SDS011;33020;53.008;13.558;2022-10-17T15:46:28;6.55;;;3.22;;
47287;SDS011;33020;53.008;13.558;2022-10-17T15:48:56;4.18;;;3.25;;
47287;SDS011;33020;53.008;13.558;2022-10-17T15:51:27;4.50;;;2.70;;
47287;SDS011;33020;53.008;13.558;2022-10-17T15:53:54;3.58;;;3.15;;
47287;SDS011;33020;53.008;13.558;2022-10-17T15:56:22;4.57;;;2.75;;
47287;SDS011;33020;53.008;13.558;2022-10-17T15:58:50;4.00;;;2.60;;
47287;SDS011;33020;53.008;13.558;2022-10-17T16:01:21;4.40;;;2.70;;
47287;SDS011;33020;53.008;13.558;2022-10-17T16:03:52;3.03;;;2.63;;
47287;SDS011;33020;53.008;13.558;2022-10-17T16:06:20;5.07;;;3.45;;
47287;SDS011;33020;53.008;13.558;2022-10-17T16:08:47;4.95;;;2.90;;
47287;SDS011;33020;53.008;13.558;2022-10-17T16:11:18;3.72;;;2.88;;
47287;SDS011;33020;53.008;13.558;2022-10-17T16:13:52;5.82;;;3.38;;
47287;SDS011;33020;53.008;13.558;2022-10-17T16:16:19;4.30;;;3.28;;
47287;SDS011;33020;53.008;13.558;2022-10-17T16:18:47;5.53;;;3.13;;
47287;SDS011;33020;53.008;13.558;2022-10-17T16:21:14;4.38;;;3.08;;
47287;SDS011;33020;53.008;13.558;2022-10-17T16:23:42;4.22;;;2.88;;
47287;SDS011;33020;53.008;13.558;2022-10-17T16:26:09;4.07;;;2.78;;
47287;SDS011;33020;53.008;13.558;2022-10-17T16:28:36;5.43;;;3.17;;
47287;SDS011;33020;53.008;13.558;2022-10-17T16:31:08;5.13;;;3.10;;
47287;SDS011;33020;53.008;13.558;2022-10-17T16:33:42;7.07;;;3.65;;
47287;SDS011;33020;53.008;13.558;2022-10-17T16:36:09;5.10;;;3.88;;
47287;SDS011;33020;53.008;13.558;2022-10-17T16:38:35;5.38;;;3.70;;
47287;SDS011;33020;53.008;13.558;2022-10-17T16:41:02;5.28;;;3.90;;
47287;SDS011;33020;53.008;13.558;2022-10-17T16:43:29;5.00;;;3.58;;
47287;SDS011;33020;53.008;13.558;2022-10-17T16:46:02;5.38;;;3.60;;
47287;SDS011;33020;53.008;13.558;2022-10-17T16:48:29;7.38;;;3.35;;